Crawford, CO

4:18 PM MDT on April 01, 2015 (GMT -0600)
KCOCRAWF5 | | Change Station
CLOSE
Current Station
Personal Weather Station
Location: Crawford, CO
Elevation: 6896 ft
Nearby Weather Stations
Active Advisory: Freeze Watch Active Notice: Public Information Statement

Elev 6896 ft 38.73 °N, 107.57 °W | Updated 8 minutes ago

Overcast
Overcast
46.7 °F
Feels Like 40 °F
N
18.0
Wind Variable Wind from ENE
Gusts 26.0 mph

Today
High -- | Low -- °F
--% Chance of Precip.
Yesterday
High -- | Low -- °F
Precip. -- in
6:55 AM 7:33 PM
Waxing Gibbous, 94% visible
Pressure 29.70 in
Visibility 10.0 miles
Clouds Clear
Windchill 40 °F
Dew Point 33 °F
Humidity 59%
Rainfall 0.00 in
Snow Depth Not available.
UV 6 out of 12
Pollen 10.00 out of 12
Air Quality Not available.
Flu Activity Not available.
METAR KMTJ 012153Z AUTO 24018G27KT 10SM CLR 18/M06 A2988 RMK AO2 PK WND 23040/2059 RAB02E13 SLP058 P0000 T01781056

More Conditions Fewer Conditions

Pressure 29.70 in
Visibility 10.0 miles
Clouds Clear
Windchill 40 °F
Dew Point 33 °F
Humidity 59%
Rainfall 0.00 in
Snow Depth Not available.
UV 6 out of 12
Pollen 10.00 out of 12
Air Quality Not available.
Flu Activity Not available.
METAR KMTJ 012153Z AUTO 24018G27KT 10SM CLR 18/M06 A2988 RMK AO2 PK WND 23040/2059 RAB02E13 SLP058 P0000 T01781056

More Conditions Fewer Conditions

10-Day Weather Forecast

Almanac

Astronomy

Apr. 01, 2015 Rise Set
Actual Time
Civil Twilight
Nautical Twilight
Astronomical Twilight
Moon
Length of Visible Light
Length of Day
Tomorrow will be .
, % of the Moon is Illuminated

Today's Extremes

State Highs State Lows

Community

WunderPhotos

Upload Photos

1,810,095 photos uploaded!

WunderBlogs® & News

Nearby

Air Quality

  Air Quality AQ Index Pollutant
Not available.

Snow Depth

Station Depth Elevation

Earthquake Activity

City Distance Mag. Time & Date
Minimum magnitude displayed is 2.5.

Coastal Water Temperatures

Place Temperature

Stations

Nearby Weather Stations

Station Location Temp. Windchill Dew Point Humidity Wind Precip. Elev Updated Type
                   
Freeze Watch
Statement as of 2:05 PM MDT on April 01, 2015

... Freeze watch in effect from late Thursday night through Friday
morning...

The National Weather Service in Grand Junction has issued a
freeze watch... which is in effect from late Thursday night
through Friday morning.

* Timing... sub-freezing temperatures are possible from 3 am until
9 am Friday morning.

* Temperatures... possibly ranging from the mid 20s to lower 30s.

* Impacts... below freezing temperatures could damage budding
fruit trees and other sensitive vegetation.

Precautionary/preparedness actions...

A freeze watch means sub-freezing temperatures are possible.
These conditions could kill crops and other sensitive vegetation.